Time;durP1;ratioP1;P1;durP2;ratioP2;P2;SDS_P1;SDS_P2;PMS_P1;PMS_P2;Temp;Humidity;BMP_temperature;BMP_pressure;BME280_temperature;BME280_humidity;BME280_pressure;Samples;Min_cycle;Max_cycle;Signal;HPM_P1;HPM_P2
2021/12/06 00:02:21;;;;;;;51.97;25.02;;;2.90;99.90;;;;;;5055297;28;20135;-75
2021/12/06 00:04:47;;;;;;;55.65;25.60;;;2.90;99.90;;;;;;5055860;28;20041;-74
2021/12/06 00:07:16;;;;;;;54.03;25.85;;;2.90;99.90;;;;;;5039129;28;20047;-75
2021/12/06 00:09:42;;;;;;;56.90;26.35;;;2.90;99.90;;;;;;5055243;28;20434;-74
2021/12/06 00:12:09;;;;;;;52.35;26.55;;;2.90;99.90;;;;;;5055346;28;20495;-75
2021/12/06 00:14:38;;;;;;;56.75;25.80;;;2.90;99.90;;;;;;5055450;28;20080;-74
2021/12/06 00:17:06;;;;;;;54.22;26.50;;;2.80;99.90;;;;;;5054836;28;20044;-74
2021/12/06 00:19:33;;;;;;;51.15;25.98;;;2.80;99.90;;;;;;5054840;28;20106;-75
2021/12/06 00:22:00;;;;;;;51.53;25.73;;;2.80;99.90;;;;;;5055365;28;20041;-73
2021/12/06 00:24:26;;;;;;;53.47;25.38;;;2.80;99.90;;;;;;5055400;28;20082;-75
2021/12/06 00:26:53;;;;;;;50.15;25.15;;;2.90;99.90;;;;;;5055142;28;20132;-73
2021/12/06 00:29:19;;;;;;;53.45;25.35;;;2.90;99.90;;;;;;5054564;28;20072;-73
2021/12/06 00:31:45;;;;;;;56.72;25.25;;;2.90;99.90;;;;;;5054926;28;20085;-73
2021/12/06 00:34:15;;;;;;;48.88;23.25;;;2.90;99.90;;;;;;5055083;28;20044;-72
2021/12/06 00:36:50;;;;;;;49.60;25.00;;;2.90;99.90;;;;;;5054903;28;20040;-73
2021/12/06 00:39:16;;;;;;;50.33;24.83;;;2.80;99.90;;;;;;5038261;28;20044;-75
2021/12/06 00:41:42;;;;;;;52.47;24.55;;;2.80;99.90;;;;;;5054751;28;20063;-75
2021/12/06 00:44:08;;;;;;;50.13;25.45;;;2.80;99.90;;;;;;5054615;28;20052;-72
2021/12/06 00:46:37;;;;;;;50.40;24.58;;;2.80;99.90;;;;;;5055012;28;20041;-72
2021/12/06 00:49:07;;;;;;;49.65;23.73;;;2.80;99.90;;;;;;5054453;28;20045;-75
2021/12/06 00:51:32;;;;;;;47.67;24.45;;;2.80;99.90;;;;;;5054851;28;20084;-72
2021/12/06 00:53:58;;;;;;;49.67;25.38;;;2.70;99.90;;;;;;5054229;28;20443;-75
2021/12/06 00:56:24;;;;;;;47.72;23.90;;;2.70;99.90;;;;;;5053367;28;20076;-75
2021/12/06 00:58:50;;;;;;;47.55;23.48;;;2.70;99.90;;;;;;5054769;28;20060;-74
2021/12/06 01:01:16;;;;;;;48.35;25.35;;;2.80;99.90;;;;;;5054620;28;20072;-75
2021/12/06 01:03:43;;;;;;;47.00;24.17;;;2.80;99.90;;;;;;5054370;28;20055;-75
2021/12/06 01:06:11;;;;;;;49.00;24.15;;;2.70;99.90;;;;;;5054782;28;20040;-74
2021/12/06 01:08:38;;;;;;;47.38;23.83;;;2.70;99.90;;;;;;5037096;28;20049;-75
2021/12/06 01:11:05;;;;;;;49.55;24.25;;;2.80;99.90;;;;;;5053821;28;20059;-75
2021/12/06 01:13:31;;;;;;;47.38;23.42;;;2.80;99.90;;;;;;5054102;28;20041;-75
2021/12/06 01:15:57;;;;;;;48.13;24.52;;;2.70;99.90;;;;;;5054711;28;20080;-74
2021/12/06 01:18:24;;;;;;;48.03;23.52;;;2.70;99.90;;;;;;5054296;28;20508;-74
2021/12/06 01:21:05;;;;;;;54.97;24.25;;;2.70;99.90;;;;;;5054017;28;20084;-74
2021/12/06 01:23:43;;;;;;;50.72;24.45;;;2.70;99.90;;;;;;5053907;28;20055;-74
2021/12/06 01:26:35;;;;;;;51.30;23.33;;;2.70;99.90;;;;;;5055102;28;20122;-74
2021/12/06 01:39:13;;;;;;;52.05;23.92;;;2.70;99.90;;;;;;5053518;28;20041;-74
2021/12/06 01:41:46;;;;;;;50.67;23.58;;;2.70;99.90;;;;;;5053613;28;20048;-74
2021/12/06 01:44:16;;;;;;;55.53;25.20;;;2.70;99.90;;;;;;5053785;28;20068;-74
2021/12/06 01:46:46;;;;;;;50.20;24.20;;;2.70;99.90;;;;;;5053268;28;20052;-74
2021/12/06 01:49:13;;;;;;;57.47;25.48;;;2.70;99.90;;;;;;5053219;28;20041;-73
2021/12/06 01:51:40;;;;;;;56.65;25.00;;;2.80;99.90;;;;;;5037157;28;20047;-73
2021/12/06 01:54:08;;;;;;;54.88;25.58;;;2.70;99.90;;;;;;5053793;28;20044;-74
2021/12/06 01:56:33;;;;;;;58.97;26.75;;;2.80;99.90;;;;;;5053225;28;20051;-73
2021/12/06 01:58:59;;;;;;;65.72;27.70;;;2.70;99.90;;;;;;5053128;28;20127;-74
2021/12/06 02:01:25;;;;;;;62.00;26.55;;;2.70;99.90;;;;;;5053049;28;20406;-74
2021/12/06 02:03:51;;;;;;;59.63;25.70;;;2.80;99.90;;;;;;5053947;28;20098;-74
2021/12/06 02:06:17;;;;;;;63.63;27.25;;;2.80;99.90;;;;;;5036781;28;20041;-74
2021/12/06 02:08:43;;;;;;;57.15;26.33;;;2.70;99.90;;;;;;5053063;28;20166;-74
2021/12/06 02:11:09;;;;;;;60.25;27.10;;;2.70;99.90;;;;;;5053270;28;20534;-74
2021/12/06 02:13:54;;;;;;;58.60;26.75;;;2.80;99.90;;;;;;5052839;28;20037;-74
2021/12/06 02:16:29;;;;;;;68.07;27.35;;;2.80;99.90;;;;;;5053542;28;20068;-74
2021/12/06 02:19:01;;;;;;;61.28;27.25;;;2.80;99.90;;;;;;5053522;28;20056;-74
2021/12/06 02:21:31;;;;;;;62.03;26.33;;;2.70;99.90;;;;;;5053089;28;20083;-73
2021/12/06 02:23:59;;;;;;;59.35;26.67;;;2.80;99.90;;;;;;5052800;28;20041;-74
2021/12/06 02:26:26;;;;;;;61.88;27.65;;;2.80;99.90;;;;;;5052507;28;20044;-74
2021/12/06 02:28:52;;;;;;;60.92;28.00;;;2.80;99.90;;;;;;5053167;28;20037;-74
2021/12/06 02:31:20;;;;;;;61.55;27.17;;;2.70;99.90;;;;;;5053060;28;20045;-74
2021/12/06 02:33:48;;;;;;;73.13;28.17;;;2.80;99.90;;;;;;5052775;28;20387;-74
2021/12/06 02:36:16;;;;;;;69.07;27.60;;;2.70;99.90;;;;;;5052775;28;20057;-74
2021/12/06 02:38:42;;;;;;;66.75;27.67;;;2.70;99.90;;;;;;5052378;28;20053;-74
2021/12/06 02:41:09;;;;;;;76.47;30.52;;;2.70;99.90;;;;;;5052631;28;20459;-74
2021/12/06 02:43:35;;;;;;;62.70;26.65;;;2.70;99.90;;;;;;5052593;28;20052;-74
2021/12/06 02:46:02;;;;;;;69.07;27.52;;;2.70;99.90;;;;;;5052661;28;20045;-73
2021/12/06 02:48:27;;;;;;;68.20;27.67;;;2.70;99.90;;;;;;5052750;28;20049;-74
2021/12/06 02:50:56;;;;;;;75.80;28.67;;;2.70;99.90;;;;;;5052386;28;20051;-73
2021/12/06 02:53:24;;;;;;;72.28;27.58;;;2.70;99.90;;;;;;5052221;28;20040;-74
2021/12/06 02:55:53;;;;;;;77.60;28.10;;;2.70;99.90;;;;;;5053235;28;20067;-74
2021/12/06 03:01:15;;;;;;;78.95;28.60;;;2.70;99.90;;;;;;5052266;28;19916;-74
2021/12/06 03:03:41;;;;;;;69.00;28.03;;;2.70;99.90;;;;;;5051858;28;20041;-74
2021/12/06 03:06:09;;;;;;;76.13;30.30;;;2.70;99.90;;;;;;5036130;28;20360;-74
2021/12/06 03:08:42;;;;;;;82.78;29.73;;;2.70;99.90;;;;;;5052588;28;20040;-74
2021/12/06 03:11:12;;;;;;;77.95;30.27;;;2.70;99.90;;;;;;5052621;28;20080;-74
2021/12/06 03:13:39;;;;;;;83.53;30.05;;;2.70;99.90;;;;;;5052086;28;20429;-73
2021/12/06 03:16:05;;;;;;;80.45;30.88;;;2.70;99.90;;;;;;5052073;28;20166;-74
2021/12/06 03:18:31;;;;;;;82.70;30.63;;;2.80;99.90;;;;;;5053299;28;20110;-74
2021/12/06 03:20:57;;;;;;;85.03;30.55;;;2.80;99.90;;;;;;5056766;28;20120;-74
2021/12/06 03:23:23;;;;;;;86.93;32.33;;;2.80;99.90;;;;;;5056558;28;20040;-73
2021/12/06 03:25:49;;;;;;;94.43;32.88;;;2.80;99.90;;;;;;5039713;28;20086;-74
2021/12/06 03:28:15;;;;;;;89.13;32.03;;;2.80;99.90;;;;;;5056305;28;20077;-74
2021/12/06 03:30:41;;;;;;;81.75;31.00;;;2.80;99.90;;;;;;5072130;28;20094;-74
2021/12/06 03:33:06;;;;;;;91.93;32.20;;;2.80;99.90;;;;;;5055929;28;20118;-74
2021/12/06 03:35:32;;;;;;;85.13;31.98;;;2.80;99.90;;;;;;5039329;28;20456;-74
2021/12/06 03:37:58;;;;;;;82.18;31.45;;;2.80;99.90;;;;;;5056256;28;20039;-74
2021/12/06 03:40:24;;;;;;;88.38;31.27;;;2.80;99.90;;;;;;5056086;28;20095;-73
2021/12/06 03:42:50;;;;;;;81.32;29.83;;;2.80;99.90;;;;;;5055862;28;20099;-74
2021/12/06 03:45:15;;;;;;;84.72;31.13;;;2.80;99.90;;;;;;5055883;28;20044;-74
2021/12/06 03:47:42;;;;;;;80.95;32.10;;;2.80;99.90;;;;;;5055465;28;20036;-75
2021/12/06 03:50:10;;;;;;;90.22;33.50;;;2.80;99.90;;;;;;5055227;28;20095;-74
2021/12/06 03:52:36;;;;;;;78.25;30.98;;;2.80;99.90;;;;;;5055956;28;20037;-75
2021/12/06 03:55:04;;;;;;;81.85;31.08;;;2.80;99.90;;;;;;5055855;28;20032;-74
2021/12/06 03:57:30;;;;;;;77.65;32.10;;;2.80;99.90;;;;;;5055399;28;20040;-75
2021/12/06 03:59:55;;;;;;;82.10;31.50;;;2.80;99.90;;;;;;5055542;28;20037;-74
2021/12/06 04:02:24;;;;;;;92.20;31.45;;;2.80;99.90;;;;;;5054445;28;20360;-74
2021/12/06 04:04:50;;;;;;;81.53;32.28;;;2.90;99.90;;;;;;5039639;28;20048;-74
2021/12/06 04:07:16;;;;;;;93.80;33.72;;;2.90;99.90;;;;;;5055569;28;20052;-74
2021/12/06 04:09:42;;;;;;;82.95;31.95;;;2.90;99.90;;;;;;5055565;28;20045;-74
2021/12/06 04:12:10;;;;;;;89.35;32.90;;;2.80;99.90;;;;;;5055392;28;20044;-74
2021/12/06 04:14:37;;;;;;;105.97;35.17;;;2.90;99.90;;;;;;5038490;28;20506;-74
2021/12/06 04:17:04;;;;;;;103.20;34.97;;;2.90;99.90;;;;;;5054944;28;20044;-74
2021/12/06 04:19:30;;;;;;;102.40;35.80;;;2.90;99.90;;;;;;5055192;28;20067;-74
2021/12/06 04:21:55;;;;;;;108.68;34.08;;;2.90;99.90;;;;;;5038737;28;20040;-74
2021/12/06 04:24:22;;;;;;;94.70;35.10;;;2.90;99.90;;;;;;5055081;28;20128;-74
2021/12/06 04:26:48;;;;;;;96.75;34.03;;;2.80;99.90;;;;;;5055105;28;20068;-74
2021/12/06 04:29:14;;;;;;;111.57;36.78;;;2.80;99.90;;;;;;5054148;28;20498;-74
2021/12/06 04:31:57;;;;;;;100.63;34.65;;;2.80;99.90;;;;;;5054911;28;20056;-74
2021/12/06 04:34:23;;;;;;;108.72;33.38;;;2.80;99.90;;;;;;5055018;28;20475;-74
2021/12/06 04:36:50;;;;;;;106.47;35.30;;;2.80;99.90;;;;;;5055213;28;20037;-73
2021/12/06 04:39:18;;;;;;;103.63;35.55;;;2.80;99.90;;;;;;5054935;28;20037;-74
2021/12/06 04:41:44;;;;;;;94.72;34.22;;;2.80;99.90;;;;;;5054425;28;20129;-74
2021/12/06 04:44:10;;;;;;;94.60;34.17;;;2.80;99.90;;;;;;5055215;28;20052;-74
2021/12/06 04:46:37;;;;;;;114.82;34.70;;;2.80;99.90;;;;;;5054613;28;20048;-74
2021/12/06 04:49:03;;;;;;;101.53;36.22;;;2.80;99.90;;;;;;5054080;28;20044;-74
2021/12/06 04:51:29;;;;;;;96.85;33.08;;;2.80;99.90;;;;;;5053962;28;20076;-74
2021/12/06 04:53:55;;;;;;;99.65;35.25;;;2.90;99.90;;;;;;5054388;28;20060;-75
2021/12/06 04:56:39;;;;;;;102.65;35.35;;;2.90;99.90;;;;;;5054428;28;20096;-74
2021/12/06 04:59:23;;;;;;;94.93;33.20;;;2.90;99.90;;;;;;5054598;28;20490;-74
2021/12/06 05:01:51;;;;;;;111.25;36.95;;;2.90;99.90;;;;;;5038105;28;20032;-74
2021/12/06 05:04:28;;;;;;;106.82;34.70;;;2.90;99.90;;;;;;5054418;28;20072;-74
2021/12/06 05:07:03;;;;;;;104.50;33.40;;;2.90;99.90;;;;;;5054169;28;20044;-74
2021/12/06 05:09:33;;;;;;;103.90;34.25;;;2.90;99.90;;;;;;5054506;28;20114;-74
2021/12/06 05:11:59;;;;;;;121.25;34.63;;;2.90;99.90;;;;;;5054460;28;20045;-74
2021/12/06 05:14:25;;;;;;;120.30;36.10;;;2.80;99.90;;;;;;5054268;28;20056;-73
2021/12/06 05:16:52;;;;;;;112.28;35.38;;;2.80;99.90;;;;;;5037208;28;20037;-74
2021/12/06 05:19:18;;;;;;;109.50;35.60;;;2.90;99.90;;;;;;5053264;28;20041;-74
2021/12/06 05:21:44;;;;;;;108.63;36.03;;;2.90;99.90;;;;;;5054144;28;20044;-74
2021/12/06 05:24:10;;;;;;;99.75;36.22;;;2.80;99.90;;;;;;5053598;28;20094;-74
2021/12/06 05:26:37;;;;;;;114.47;36.05;;;2.90;99.90;;;;;;5054037;28;20041;-73
2021/12/06 05:29:06;;;;;;;106.78;35.65;;;2.90;99.90;;;;;;5037336;28;20562;-74
2021/12/06 05:31:35;;;;;;;116.88;36.05;;;2.90;99.90;;;;;;5053955;28;20057;-75
2021/12/06 05:34:07;;;;;;;109.90;34.88;;;2.90;99.90;;;;;;5053655;28;20037;-74
2021/12/06 05:36:33;;;;;;;101.28;35.90;;;2.90;99.90;;;;;;5053941;28;20041;-74
2021/12/06 05:38:58;;;;;;;117.68;38.05;;;2.90;99.90;;;;;;5053541;28;20037;-74
2021/12/06 05:41:25;;;;;;;117.53;37.65;;;2.90;99.90;;;;;;5053111;28;20052;-74
2021/12/06 05:43:51;;;;;;;112.72;38.33;;;2.90;99.90;;;;;;5053704;28;20123;-74
2021/12/06 05:46:17;;;;;;;108.05;36.05;;;2.90;99.90;;;;;;5052881;28;20041;-74
2021/12/06 05:48:42;;;;;;;108.68;34.70;;;2.90;99.90;;;;;;5052678;28;20097;-74
2021/12/06 05:51:08;;;;;;;98.40;34.30;;;2.90;99.90;;;;;;5053657;28;20041;-73
2021/12/06 05:53:34;;;;;;;108.47;36.20;;;2.90;99.90;;;;;;5037514;28;20479;-74
2021/12/06 05:56:02;;;;;;;105.63;35.40;;;2.90;99.90;;;;;;5053389;28;20407;-74
2021/12/06 05:58:29;;;;;;;97.70;33.95;;;2.90;99.90;;;;;;5036584;28;20041;-74
2021/12/06 06:00:56;;;;;;;90.45;32.95;;;2.90;99.90;;;;;;5053142;28;20044;-74
2021/12/06 06:03:22;;;;;;;86.72;30.88;;;2.90;99.90;;;;;;5053047;28;20041;-74
2021/12/06 06:05:48;;;;;;;79.45;29.45;;;2.90;99.90;;;;;;5054010;28;20134;-74
2021/12/06 06:08:14;;;;;;;75.70;29.60;;;2.90;99.90;;;;;;5036853;28;20045;-73
2021/12/06 06:10:40;;;;;;;80.32;30.33;;;2.90;99.90;;;;;;5053055;28;20357;-74
2021/12/06 06:13:07;;;;;;;81.82;32.00;;;2.80;99.90;;;;;;5053189;28;20044;-74
2021/12/06 06:15:33;;;;;;;78.95;30.45;;;2.80;99.90;;;;;;5052927;28;20048;-73
2021/12/06 06:18:00;;;;;;;82.78;32.10;;;2.80;99.90;;;;;;5052101;28;20036;-74
2021/12/06 06:20:38;;;;;;;86.25;31.77;;;2.80;99.90;;;;;;5036644;28;20465;-73
2021/12/06 06:23:04;;;;;;;89.88;31.48;;;2.80;99.90;;;;;;5053038;28;20123;-73
2021/12/06 06:25:30;;;;;;;93.45;31.90;;;2.80;99.90;;;;;;5052818;28;20044;-73
2021/12/06 06:27:56;;;;;;;95.97;32.55;;;2.70;99.90;;;;;;5052705;28;20087;-73
2021/12/06 06:30:21;;;;;;;87.88;31.08;;;2.70;99.90;;;;;;5052801;28;20079;-74
2021/12/06 06:32:47;;;;;;;93.63;32.95;;;2.70;99.90;;;;;;5053192;28;20049;-74
2021/12/06 06:35:14;;;;;;;101.80;31.92;;;2.70;99.90;;;;;;5053005;28;20087;-74
2021/12/06 06:37:40;;;;;;;104.97;33.22;;;2.70;99.90;;;;;;5052099;28;20537;-81
2021/12/06 06:40:07;;;;;;;87.50;32.10;;;2.70;99.90;;;;;;5021578;28;20195;-73
2021/12/06 06:42:33;;;;;;;94.93;33.22;;;2.70;99.90;;;;;;5052695;28;20080;-73
2021/12/06 06:44:58;;;;;;;96.65;34.03;;;2.70;99.90;;;;;;5052277;28;20087;-75
2021/12/06 06:47:24;;;;;;;89.00;33.03;;;2.70;99.90;;;;;;5036139;28;20033;-75
2021/12/06 06:49:50;;;;;;;96.82;31.85;;;2.70;99.90;;;;;;5053133;28;20056;-75
2021/12/06 06:52:16;;;;;;;93.60;33.67;;;2.70;99.90;;;;;;5052872;28;20073;-74
2021/12/06 06:54:43;;;;;;;92.07;32.33;;;2.70;99.90;;;;;;5035645;28;20080;-75
2021/12/06 06:57:09;;;;;;;100.68;33.40;;;2.70;99.90;;;;;;5052336;28;20045;-75
2021/12/06 06:59:34;;;;;;;84.63;30.90;;;2.70;99.90;;;;;;5052086;28;20132;-75
2021/12/06 07:02:02;;;;;;;84.25;31.65;;;2.70;99.90;;;;;;5053058;28;20041;-74
2021/12/06 07:04:29;;;;;;;86.32;32.78;;;2.70;99.90;;;;;;5052247;28;20072;-74
2021/12/06 07:06:55;;;;;;;84.45;31.73;;;2.70;99.90;;;;;;5052524;28;20041;-74
2021/12/06 07:09:21;;;;;;;76.20;30.10;;;2.70;99.90;;;;;;5052608;28;20049;-74
2021/12/06 07:11:47;;;;;;;83.25;31.65;;;2.70;99.90;;;;;;5052269;28;20045;-73
2021/12/06 07:14:14;;;;;;;94.95;30.88;;;2.70;99.90;;;;;;5052015;28;20041;-74
2021/12/06 07:16:41;;;;;;;76.72;29.35;;;2.70;99.90;;;;;;5035011;28;20041;-74
2021/12/06 07:19:07;;;;;;;82.18;30.20;;;2.70;99.90;;;;;;5052765;28;20044;-74
2021/12/06 07:21:33;;;;;;;78.93;29.20;;;2.60;99.90;;;;;;5052383;28;20426;-74
2021/12/06 07:23:59;;;;;;;74.25;29.25;;;2.60;99.90;;;;;;5052381;28;20099;-74
2021/12/06 07:26:25;;;;;;;88.25;30.35;;;2.60;99.90;;;;;;5052167;28;20041;-74
2021/12/06 07:28:54;;;;;;;83.90;29.50;;;2.60;99.90;;;;;;5051768;28;20501;-74
2021/12/06 07:31:21;;;;;;;82.68;29.15;;;2.60;99.90;;;;;;5052189;28;20044;-74
2021/12/06 07:33:48;;;;;;;78.88;28.77;;;2.60;99.90;;;;;;5051121;28;20441;-74
2021/12/06 07:36:13;;;;;;;75.10;29.25;;;2.60;99.90;;;;;;5052130;28;20041;-74
2021/12/06 07:38:39;;;;;;;77.25;29.95;;;2.60;99.90;;;;;;5052078;28;20090;-74
2021/12/06 07:41:07;;;;;;;75.88;28.98;;;2.60;99.90;;;;;;5049801;28;20099;-74
2021/12/06 07:43:33;;;;;;;94.50;31.60;;;2.60;99.90;;;;;;5051842;28;20083;-73
2021/12/06 07:45:59;;;;;;;75.82;30.80;;;2.60;99.90;;;;;;5052032;28;20049;-73
2021/12/06 07:48:25;;;;;;;69.95;29.05;;;2.60;99.90;;;;;;5051879;28;20638;-72
2021/12/06 07:50:50;;;;;;;72.50;27.80;;;2.60;99.90;;;;;;5052215;28;20053;-73
2021/12/06 07:53:16;;;;;;;68.78;27.27;;;2.60;99.90;;;;;;5051473;28;20391;-73
2021/12/06 07:55:42;;;;;;;64.43;27.20;;;2.60;99.90;;;;;;5051590;28;20052;-73
2021/12/06 07:58:09;;;;;;;66.82;26.17;;;2.50;99.90;;;;;;5051412;28;20459;-73
2021/12/06 08:00:43;;;;;;;66.05;28.13;;;2.50;99.90;;;;;;5051742;28;20075;-73
2021/12/06 08:03:11;;;;;;;65.50;27.10;;;2.50;99.90;;;;;;5052117;28;20070;-74
2021/12/06 08:05:39;;;;;;;70.78;27.80;;;2.50;99.90;;;;;;5054699;28;20498;-74
2021/12/06 08:08:14;;;;;;;71.43;28.60;;;2.50;99.90;;;;;;5038807;28;20074;-74
2021/12/06 08:10:43;;;;;;;79.57;31.27;;;2.50;99.90;;;;;;5038996;28;20052;-73
2021/12/06 08:13:10;;;;;;;95.40;35.40;;;2.50;99.90;;;;;;5055845;28;20044;-74
2021/12/06 08:15:36;;;;;;;97.13;35.70;;;2.40;99.90;;;;;;5055529;28;20116;-72
2021/12/06 08:18:03;;;;;;;113.60;36.55;;;2.50;99.90;;;;;;5055138;28;20514;-74
2021/12/06 08:20:29;;;;;;;101.47;35.50;;;2.40;99.90;;;;;;5055233;28;20041;-74
2021/12/06 08:22:55;;;;;;;107.88;36.85;;;2.40;99.90;;;;;;5054555;28;20037;-74
2021/12/06 08:25:21;;;;;;;113.82;39.35;;;2.30;99.90;;;;;;5054806;28;20043;-74
2021/12/06 08:27:46;;;;;;;129.80;42.55;;;2.30;99.90;;;;;;5055231;28;20041;-73
2021/12/06 08:30:16;;;;;;;134.32;45.15;;;2.30;99.90;;;;;;5055281;28;20045;-73
2021/12/06 08:32:42;;;;;;;143.93;44.20;;;2.40;99.90;;;;;;5054863;28;20048;-73
2021/12/06 08:35:08;;;;;;;139.68;45.17;;;2.40;99.90;;;;;;5054838;28;20475;-73
2021/12/06 08:37:34;;;;;;;131.60;44.35;;;2.40;99.90;;;;;;5054497;28;20041;-73
2021/12/06 08:40:00;;;;;;;125.25;43.17;;;2.40;99.90;;;;;;5054948;28;20039;-74
2021/12/06 08:42:25;;;;;;;128.52;44.40;;;2.40;99.90;;;;;;5054895;28;20049;-73
2021/12/06 08:44:53;;;;;;;121.90;42.65;;;2.30;99.90;;;;;;5054836;28;20055;-73
2021/12/06 08:47:18;;;;;;;133.20;44.58;;;2.30;99.90;;;;;;5053941;28;20045;-73
2021/12/06 08:49:45;;;;;;;122.45;43.08;;;2.30;99.90;;;;;;5054794;28;20380;-73
2021/12/06 08:52:11;;;;;;;129.98;42.85;;;2.40;99.90;;;;;;5054532;28;20053;-73
2021/12/06 08:54:37;;;;;;;120.00;40.70;;;2.40;99.90;;;;;;5071193;28;20049;-73
2021/12/06 08:57:04;;;;;;;119.60;37.53;;;2.40;99.90;;;;;;5054757;28;20075;-73
2021/12/06 08:59:30;;;;;;;101.10;36.83;;;2.40;99.90;;;;;;5071396;28;20128;-73
2021/12/06 09:01:57;;;;;;;99.70;37.50;;;2.40;99.90;;;;;;5054122;28;20120;-73
2021/12/06 09:04:26;;;;;;;107.43;36.35;;;2.40;99.90;;;;;;5054606;28;20045;-73
2021/12/06 09:06:54;;;;;;;98.77;35.33;;;2.40;99.90;;;;;;5054132;28;20066;-73
2021/12/06 09:09:21;;;;;;;92.90;34.03;;;2.40;99.90;;;;;;5054650;28;20152;-72
2021/12/06 09:11:49;;;;;;;95.38;34.35;;;2.40;99.90;;;;;;5054389;28;20083;-72
2021/12/06 09:14:17;;;;;;;91.50;32.92;;;2.40;99.90;;;;;;5054293;28;20383;-73
2021/12/06 09:16:43;;;;;;;90.32;31.38;;;2.40;99.90;;;;;;5052865;28;20490;-72
2021/12/06 09:19:11;;;;;;;90.10;31.83;;;2.40;99.90;;;;;;5053800;28;20124;-73
2021/12/06 09:21:38;;;;;;;91.10;30.83;;;2.50;99.90;;;;;;5037346;28;20044;-74
2021/12/06 09:24:06;;;;;;;93.32;32.13;;;2.50;99.90;;;;;;5054778;28;20040;-74
2021/12/06 09:26:33;;;;;;;77.63;28.67;;;2.50;99.90;;;;;;5054616;28;20080;-74
2021/12/06 09:28:59;;;;;;;71.95;27.85;;;2.50;99.90;;;;;;5053891;28;20037;-74
2021/12/06 09:31:24;;;;;;;64.53;23.95;;;2.50;99.90;;;;;;5037124;28;20071;-73
2021/12/06 09:33:50;;;;;;;67.25;25.02;;;2.50;99.90;;;;;;5053621;28;20049;-73
2021/12/06 09:36:18;;;;;;;64.63;26.02;;;2.50;99.90;;;;;;5053677;28;20053;-73
2021/12/06 09:38:45;;;;;;;61.33;25.27;;;2.50;99.90;;;;;;5054475;28;20041;-73
2021/12/06 09:41:21;;;;;;;68.32;24.25;;;2.50;99.90;;;;;;5053542;28;20069;-73
2021/12/06 09:43:48;;;;;;;66.45;24.60;;;2.50;99.90;;;;;;5053919;28;20045;-74
2021/12/06 09:46:14;;;;;;;56.20;23.60;;;2.50;99.90;;;;;;5053593;28;20040;-73
2021/12/06 09:48:42;;;;;;;57.05;23.58;;;2.50;99.90;;;;;;5052376;28;20434;-73
2021/12/06 09:51:16;;;;;;;58.55;23.23;;;2.50;99.90;;;;;;5054314;28;20107;-74
2021/12/06 09:53:45;;;;;;;43.97;20.33;;;2.50;99.90;;;;;;5053663;28;20038;-74
2021/12/06 09:56:14;;;;;;;46.05;19.75;;;2.50;99.90;;;;;;5053724;28;20383;-74
2021/12/06 09:58:41;;;;;;;45.53;19.48;;;2.60;99.90;;;;;;5053088;28;20522;-74
2021/12/06 10:01:16;;;;;;;42.97;19.02;;;2.60;99.90;;;;;;5053151;28;20487;-74
2021/12/06 10:03:46;;;;;;;40.13;18.58;;;2.60;99.90;;;;;;5054017;28;20045;-74
2021/12/06 10:06:12;;;;;;;42.00;19.90;;;2.60;99.90;;;;;;5053311;28;20471;-74
2021/12/06 10:08:39;;;;;;;45.83;20.42;;;2.60;99.90;;;;;;5053579;28;20064;-75
2021/12/06 10:11:07;;;;;;;40.08;19.63;;;2.60;99.90;;;;;;5053067;28;20044;-73
2021/12/06 10:13:33;;;;;;;42.58;19.13;;;2.60;99.90;;;;;;5052464;28;20422;-74
2021/12/06 10:15:59;;;;;;;42.20;19.80;;;2.60;99.90;;;;;;5052981;28;20051;-74
2021/12/06 10:18:25;;;;;;;42.30;19.77;;;2.60;99.90;;;;;;5053342;28;20041;-74
2021/12/06 10:20:52;;;;;;;42.70;20.52;;;2.70;99.90;;;;;;5053005;28;20090;-74
2021/12/06 10:23:19;;;;;;;49.58;21.60;;;2.70;99.90;;;;;;5053026;28;20540;-75
2021/12/06 10:25:49;;;;;;;50.85;21.92;;;2.70;99.90;;;;;;5053000;28;20086;-73
2021/12/06 10:28:17;;;;;;;47.60;21.73;;;2.80;99.90;;;;;;5052368;28;20273;-73
2021/12/06 10:30:53;;;;;;;51.42;22.42;;;2.80;99.90;;;;;;5053096;28;20049;-73
2021/12/06 10:33:23;;;;;;;53.33;23.33;;;2.80;99.90;;;;;;5052292;28;20053;-73
2021/12/06 10:35:50;;;;;;;;;;;2.80;99.90;;;;;;5053229;28;20072;-72
2021/12/06 10:38:37;;;;;;;54.15;22.83;;;2.80;99.90;;;;;;5052445;28;20458;-74
2021/12/06 10:41:04;;;;;;;55.42;23.27;;;2.90;99.90;;;;;;5036568;28;20033;-73
2021/12/06 10:43:30;;;;;;;52.15;23.25;;;2.90;99.90;;;;;;5052061;28;20039;-72
2021/12/06 10:45:57;;;;;;;56.50;23.73;;;2.90;99.90;;;;;;5052111;28;20410;-73
2021/12/06 10:48:29;;;;;;;57.47;24.42;;;3.00;99.90;;;;;;5035892;28;20147;-72
2021/12/06 10:50:59;;;;;;;55.97;23.92;;;3.00;99.90;;;;;;5035515;28;20128;-72
2021/12/06 10:53:39;;;;;;;61.00;25.02;;;3.00;99.90;;;;;;5052394;28;20048;-73
2021/12/06 10:56:16;;;;;;;53.05;24.83;;;3.10;99.90;;;;;;5052515;28;20040;-72
2021/12/06 10:58:42;;;;;;;50.92;23.23;;;3.10;99.90;;;;;;5052209;28;20064;-73
2021/12/06 11:01:16;;;;;;;50.05;24.65;;;3.10;99.90;;;;;;5051651;28;20041;-72
2021/12/06 11:03:48;;;;;;;49.47;22.45;;;3.10;99.90;;;;;;5051565;28;20045;-74
2021/12/06 11:06:41;;;;;;;51.67;21.27;;;3.10;99.90;;;;;;5052199;28;20043;-73
2021/12/06 11:09:07;;;;;;;41.60;19.92;;;3.10;99.90;;;;;;5051908;28;20052;-73
2021/12/06 11:11:45;;;;;;;42.10;19.00;;;3.10;99.90;;;;;;5051323;28;20036;-73
2021/12/06 11:14:20;;;;;;;45.53;19.60;;;3.10;99.90;;;;;;5051510;28;20044;-74
2021/12/06 11:17:07;;;;;;;43.70;20.63;;;3.10;99.90;;;;;;5051218;28;20045;-74
2021/12/06 11:19:34;;;;;;;42.08;19.95;;;3.10;99.90;;;;;;5033310;28;20095;-73
2021/12/06 11:22:02;;;;;;;46.30;20.48;;;3.10;99.90;;;;;;5051738;28;20067;-73
2021/12/06 11:24:32;;;;;;;38.83;19.17;;;3.10;99.90;;;;;;5051053;28;20120;-73
2021/12/06 11:27:05;;;;;;;42.33;20.05;;;3.10;99.90;;;;;;5035473;28;20175;-73
2021/12/06 11:29:38;;;;;;;44.53;19.75;;;3.20;99.90;;;;;;5051688;28;20112;-74
2021/12/06 11:32:09;;;;;;;43.28;19.40;;;3.20;99.90;;;;;;5051803;28;20553;-73
2021/12/06 11:34:49;;;;;;;43.55;19.90;;;3.20;99.90;;;;;;5052102;28;20135;-74
2021/12/06 11:37:30;;;;;;;47.17;20.63;;;3.20;99.90;;;;;;5035457;28;20041;-74
2021/12/06 11:40:17;;;;;;;44.30;19.80;;;3.20;99.90;;;;;;5037651;28;20131;-73
2021/12/06 11:42:51;;;;;;;46.90;19.42;;;3.20;99.90;;;;;;5055776;28;20083;-73
2021/12/06 11:45:33;;;;;;;46.30;20.25;;;3.30;99.90;;;;;;5055283;28;20060;-73
2021/12/06 11:48:14;;;;;;;51.92;21.58;;;3.30;99.90;;;;;;5056379;28;20463;-73
2021/12/06 11:50:46;;;;;;;52.08;21.25;;;3.30;99.90;;;;;;5055916;28;20040;-73
2021/12/06 11:53:12;;;;;;;53.00;20.92;;;3.30;99.90;;;;;;5056091;28;20049;-72
2021/12/06 11:56:05;;;;;;;50.38;20.33;;;3.40;99.90;;;;;;5055565;28;20048;-74
2021/12/06 11:58:35;;;;;;;54.03;21.30;;;3.40;99.90;;;;;;5047934;28;20099;-74
2021/12/06 12:01:15;;;;;;;48.10;21.10;;;3.50;99.90;;;;;;5056183;28;20044;-73
2021/12/06 12:03:43;;;;;;;49.40;21.45;;;3.50;99.90;;;;;;5055066;28;20045;-74
2021/12/06 12:06:23;;;;;;;52.75;21.88;;;3.50;99.90;;;;;;5038321;28;20045;-74
2021/12/06 12:09:20;;;;;;;49.80;21.25;;;3.50;99.90;;;;;;5039163;28;20045;-74
2021/12/06 12:12:04;;;;;;;50.78;22.38;;;3.50;99.90;;;;;;5054722;28;20416;-72
2021/12/06 12:14:36;;;;;;;50.85;21.38;;;3.50;99.90;;;;;;5055221;28;20106;-73
2021/12/06 12:17:05;;;;;;;50.22;21.98;;;3.50;99.90;;;;;;5055346;28;20048;-72
2021/12/06 12:19:33;;;;;;;52.25;22.25;;;3.50;99.90;;;;;;5055507;28;20060;-72
2021/12/06 12:21:59;;;;;;;50.95;20.77;;;3.60;99.90;;;;;;5038835;28;20103;-72
2021/12/06 12:24:25;;;;;;;54.78;22.83;;;3.60;99.90;;;;;;5055368;28;20037;-72
2021/12/06 12:26:57;;;;;;;53.50;23.45;;;3.60;99.90;;;;;;5055249;28;20044;-73
2021/12/06 12:29:26;;;;;;;52.65;24.00;;;3.60;99.90;;;;;;5054967;28;20151;-74
2021/12/06 12:32:00;;;;;;;57.30;24.80;;;3.60;99.90;;;;;;5055084;28;20110;-74
2021/12/06 12:34:31;;;;;;;61.38;24.52;;;3.60;99.90;;;;;;5054991;28;20046;-74
2021/12/06 12:36:57;;;;;;;60.25;26.08;;;3.60;99.90;;;;;;5054513;28;20491;-74
2021/12/06 12:39:26;;;;;;;64.15;25.25;;;3.50;99.90;;;;;;5038333;28;20049;-74
2021/12/06 12:41:59;;;;;;;63.08;26.77;;;3.60;99.90;;;;;;5055056;28;20040;-74
2021/12/06 12:44:43;;;;;;;68.45;29.30;;;3.60;99.90;;;;;;5055000;28;20124;-74
2021/12/06 12:47:14;;;;;;;66.85;29.75;;;3.60;99.90;;;;;;5038222;28;20124;-74
2021/12/06 12:49:45;;;;;;;67.57;30.58;;;3.50;99.90;;;;;;5054761;28;20044;-74
2021/12/06 12:52:10;;;;;;;72.55;31.17;;;3.50;99.90;;;;;;5037743;28;20057;-74
2021/12/06 12:54:41;;;;;;;70.07;29.60;;;3.60;99.90;;;;;;5055084;28;20049;-73
2021/12/06 12:57:14;;;;;;;75.90;31.83;;;3.60;99.90;;;;;;5037962;28;20045;-74